Time;durP1;ratioP1;P1;durP2;ratioP2;P2;SDS_P1;SDS_P2;PMS_P1;PMS_P2;Temp;Humidity;BMP_temperature;BMP_pressure;BME280_temperature;BME280_humidity;BME280_pressure;Samples;Min_cycle;Max_cycle;Signal;HPM_P1;HPM_P2
2021/06/21 00:01:07;;;;;;;;;;;;;;;-144.31;68.20;73580.78;4940442;28;19918;-73
2021/06/21 00:03:33;;;;;;;;;;;;;;;-144.31;68.21;73574.78;4963218;28;19917;-74
2021/06/21 00:05:58;;;;;;;;;;;;;;;-144.31;68.22;73576.78;4960227;28;19918;-72
2021/06/21 00:08:23;;;;;;;;;;;;;;;-144.31;68.24;73572.78;4974940;28;19918;-73
2021/06/21 00:10:51;;;;;;;;;;;;;;;-144.31;68.25;73576.78;4961601;28;19917;-73
2021/06/21 00:13:17;;;;;;;;;;;;;;;-144.31;68.26;73570.78;4961499;28;20036;-74
2021/06/21 00:15:42;;;;;;;;;;;;;;;-144.31;68.27;73568.81;4958038;28;19913;-73
2021/06/21 00:18:12;;;;;;;;;;;;;;;-144.31;68.30;73568.81;4962718;28;19925;-73
2021/06/21 00:20:37;;;;;;;;;;;;;;;-144.31;68.30;73572.78;4957203;28;19918;-74
2021/06/21 00:23:02;;;;;;;;;;;;;;;-144.31;68.32;73580.78;4958606;28;19918;-73
2021/06/21 00:25:28;;;;;;;;;;;;;;;-144.31;68.31;73586.75;4961348;28;20332;-72
2021/06/21 00:27:56;;;;;;;;;;;;;;;-144.31;68.32;73592.75;4973406;28;20005;-72
2021/06/21 00:30:21;;;;;;;;;;;;;;;-144.31;68.33;73584.78;4971580;28;20388;-73
2021/06/21 00:32:47;;;;;;;;;;;;;;;-144.31;68.35;73576.78;4957433;28;19929;-74
2021/06/21 00:35:13;;;;;;;;;;;;;;;-144.31;68.37;73578.78;4960642;28;19921;-73
2021/06/21 00:37:38;;;;;;;;;;;;;;;-144.31;68.37;73572.78;4959861;28;19925;-74
2021/06/21 00:40:06;;;;;;;;;;;;;;;-144.31;68.41;73568.81;4972043;28;20344;-74
2021/06/21 00:42:33;;;;;;;;;;;;;;;-144.31;68.41;73564.81;4958633;28;19918;-73
2021/06/21 00:44:58;;;;;;;;;;;;;;;-144.31;68.42;73566.81;4960898;28;19933;-73
2021/06/21 00:47:23;;;;;;;;;;;;;;;-144.31;68.45;73570.78;4974122;28;19918;-73
2021/06/21 00:49:49;;;;;;;;;;;;;;;-144.31;68.47;73566.81;4958637;28;19918;-72
2021/06/21 00:52:21;;;;;;;;;;;;;;;-144.31;68.48;73584.78;4960147;28;19918;-72
2021/06/21 00:54:46;;;;;;;;;;;;;;;-144.31;68.50;73588.75;4961102;28;19925;-72
2021/06/21 00:57:12;;;;;;;;;;;;;;;-144.31;68.51;73580.78;4960566;28;19918;-72
2021/06/21 00:59:42;;;;;;;;;;;;;;;-144.31;68.53;73592.75;4962198;28;19925;-73
2021/06/21 01:02:07;;;;;;;;;;;;;;;-144.31;68.54;73594.75;4987108;28;20187;-72
2021/06/21 01:04:35;;;;;;;;;;;;;;;-144.31;68.57;73592.75;4977123;28;19918;-73
2021/06/21 01:07:01;;;;;;;;;;;;;;;-144.31;68.58;73584.78;4963198;28;19918;-72
2021/06/21 01:09:26;;;;;;;;;;;;;;;-144.31;68.57;73580.78;4966597;28;20303;-73
2021/06/21 01:11:57;;;;;;;;;;;;;;;-144.31;68.61;73580.78;4960739;28;19973;-74
2021/06/21 01:14:27;;;;;;;;;;;;;;;-144.31;68.60;73572.78;4958294;28;19926;-73
2021/06/21 01:17:19;;;;;;;;;;;;;;;-144.31;68.61;73576.78;4957369;28;20431;-74
2021/06/21 01:20:06;;;;;;;;;;;;;;;-144.31;68.63;73570.78;4957580;28;20357;-73
2021/06/21 01:22:32;;;;;;;;;;;;;;;-144.31;68.55;73576.78;4960171;28;20016;-73
2021/06/21 01:25:07;;;;;;;;;;;;;;;-144.31;68.57;73562.81;4957092;28;20020;-74
2021/06/21 01:27:49;;;;;;;;;;;;;;;-144.31;68.56;73566.81;4958384;28;19969;-73
2021/06/21 01:30:16;;;;;;;;;;;;;;;-144.31;68.60;73572.78;4957617;28;19918;-74
2021/06/21 01:32:55;;;;;;;;;;;;;;;-144.31;68.60;73578.78;4956842;28;20284;-73
2021/06/21 01:35:44;;;;;;;;;;;;;;;-144.31;68.62;73584.78;4957416;28;19969;-72
2021/06/21 01:38:19;;;;;;;;;;;;;;;-144.31;68.66;73584.78;4954740;28;20340;-72
2021/06/21 01:40:52;;;;;;;;;;;;;;;-144.31;68.67;73574.78;4957046;28;20288;-72
2021/06/21 01:43:23;;;;;;;;;;;;;;;-144.31;68.66;73568.81;4956555;28;20311;-75
2021/06/21 01:45:49;;;;;;;;;;;;;;;-144.31;68.67;73578.78;4972129;28;19981;-72
2021/06/21 01:48:15;;;;;;;;;;;;;;;-144.31;68.71;73578.78;4959414;28;20008;-74
2021/06/21 01:50:41;;;;;;;;;;;;;;;-144.31;68.72;73588.75;4960305;28;19917;-75
2021/06/21 01:53:12;;;;;;;;;;;;;;;-144.31;68.74;73602.75;4958567;28;19914;-74
2021/06/21 01:55:41;;;;;;;;;;;;;;;-144.31;68.81;73610.72;4956084;28;19918;-75
2021/06/21 01:58:08;;;;;;;;;;;;;;;-144.31;68.79;73608.72;4960100;28;19914;-76
2021/06/21 02:00:37;;;;;;;;;;;;;;;-144.31;68.78;73602.75;4962715;28;19929;-75
2021/06/21 02:03:03;;;;;;;;;;;;;;;-144.31;68.79;73594.75;4962841;28;19918;-74
2021/06/21 02:05:31;;;;;;;;;;;;;;;-144.31;68.80;73590.75;4954139;28;19919;-73
2021/06/21 02:07:57;;;;;;;;;;;;;;;-144.31;68.82;73578.78;4960498;28;19918;-75
2021/06/21 02:10:23;;;;;;;;;;;;;;;-144.31;68.79;73582.78;4978118;28;19917;-72
2021/06/21 02:12:48;;;;;;;;;;;;;;;-144.31;68.79;73584.78;4966120;28;19917;-73
2021/06/21 02:15:14;;;;;;;;;;;;;;;-144.31;68.82;73584.78;4976991;28;19925;-73
2021/06/21 02:17:42;;;;;;;;;;;;;;;-144.31;68.85;73588.75;4960547;28;20288;-74
2021/06/21 02:20:08;;;;;;;;;;;;;;;-144.31;68.86;73598.75;4975278;28;19930;-74
2021/06/21 02:22:34;;;;;;;;;;;;;;;-144.31;68.88;73612.72;4960283;28;19918;-74
2021/06/21 02:25:03;;;;;;;;;;;;;;;-144.31;68.89;73618.72;4971061;28;19956;-74
2021/06/21 02:27:29;;;;;;;;;;;;;;;-144.31;68.91;73620.69;4969777;28;19918;-74
2021/06/21 02:29:56;;;;;;;;;;;;;;;-144.31;68.92;73626.69;4964727;28;19914;-74
2021/06/21 02:32:22;;;;;;;;;;;;;;;-144.31;68.93;73622.69;4960155;28;19926;-74
2021/06/21 02:34:47;;;;;;;;;;;;;;;-144.31;68.93;73626.69;4964493;28;19921;-74
2021/06/21 02:37:13;;;;;;;;;;;;;;;-144.31;68.91;73628.69;4961755;28;19921;-73
2021/06/21 02:39:38;;;;;;;;;;;;;;;-144.31;68.92;73628.69;4956928;28;19922;-74
2021/06/21 02:42:04;;;;;;;;;;;;;;;-144.31;68.94;73628.69;4961360;28;20299;-74
2021/06/21 02:44:32;;;;;;;;;;;;;;;-144.31;68.96;73632.69;4960578;28;20165;-74
2021/06/21 02:46:57;;;;;;;;;;;;;;;-144.31;68.96;73632.69;4960920;28;19986;-74
2021/06/21 02:49:23;;;;;;;;;;;;;;;-144.31;68.99;73644.66;4962285;28;19929;-74
2021/06/21 02:52:21;;;;;;;;;;;;;;;-144.31;69.01;73648.66;4957540;28;20024;-74
2021/06/21 02:55:06;;;;;;;;;;;;;;;-144.31;69.05;73670.63;4951654;28;19937;-74
2021/06/21 02:57:33;;;;;;;;;;;;;;;-144.31;69.10;73684.59;4960876;28;19972;-74
2021/06/21 02:59:59;;;;;;;;;;;;;;;-144.31;69.13;73698.56;4961239;28;19922;-74
2021/06/21 03:02:25;;;;;;;;;;;;;;;-144.31;69.15;73704.56;4961404;28;19918;-75
2021/06/21 03:04:51;;;;;;;;;;;;;;;-144.31;69.16;73716.53;4961371;28;19918;-74
2021/06/21 03:07:18;;;;;;;;;;;;;;;-144.31;69.16;73720.53;4962407;28;20308;-75
2021/06/21 03:09:46;;;;;;;;;;;;;;;-144.31;69.19;73722.53;4961486;28;19930;-74
2021/06/21 03:12:12;;;;;;;;;;;;;;;-144.31;69.17;73724.50;4962988;28;19918;-74
2021/06/21 03:14:43;;;;;;;;;;;;;;;-144.31;69.16;73734.50;4960543;28;20047;-75
2021/06/21 03:17:10;;;;;;;;;;;;;;;-144.31;69.16;73732.50;4958899;28;19962;-74
2021/06/21 03:19:37;;;;;;;;;;;;;;;-144.31;69.22;73744.47;4961681;28;19922;-74
2021/06/21 03:22:03;;;;;;;;;;;;;;;-144.31;69.26;73748.47;4963580;28;19929;-74
2021/06/21 03:24:28;;;;;;;;;;;;;;;-144.31;69.28;73748.47;4974880;28;20413;-74
2021/06/21 03:26:54;;;;;;;;;;;;;;;-144.31;69.27;73750.47;4958701;28;20302;-75
2021/06/21 03:29:20;;;;;;;;;;;;;;;-144.31;69.29;73768.44;4959276;28;19962;-74
2021/06/21 03:31:48;;;;;;;;;;;;;;;-144.31;69.32;73770.44;4973313;28;19918;-74
2021/06/21 03:34:13;;;;;;;;;;;;;;;-144.31;69.34;73774.44;4941457;28;19934;-75
2021/06/21 03:36:39;;;;;;;;;;;;;;;-144.31;69.37;73778.41;4957857;28;19973;-75
2021/06/21 03:39:05;;;;;;;;;;;;;;;-144.31;69.40;73782.41;4958793;28;19921;-75
2021/06/21 03:41:33;;;;;;;;;;;;;;;-144.31;69.40;73772.44;4961214;28;19918;-75
2021/06/21 03:43:58;;;;;;;;;;;;;;;-144.31;69.40;73764.44;4957679;28;19922;-75
2021/06/21 03:46:23;;;;;;;;;;;;;;;-144.31;69.40;73758.44;4959866;28;19929;-74
2021/06/21 03:48:49;;;;;;;;;;;;;;;-144.31;69.41;73756.47;4957310;28;20347;-75
2021/06/21 03:51:14;;;;;;;;;;;;;;;-144.31;69.44;73758.44;4958129;28;19914;-74
2021/06/21 03:53:40;;;;;;;;;;;;;;;-144.31;69.47;73750.47;4959777;28;20283;-75
2021/06/21 03:56:05;;;;;;;;;;;;;;;-144.31;69.52;73744.47;4959302;28;19914;-74
2021/06/21 03:58:30;;;;;;;;;;;;;;;-144.31;69.43;73746.47;4963269;28;19918;-74
2021/06/21 04:00:56;;;;;;;;;;;;;;;-144.31;69.48;73744.47;4959005;28;20398;-75
2021/06/21 04:03:23;;;;;;;;;;;;;;;-144.31;69.48;73738.50;4972745;28;19965;-75
2021/06/21 04:05:49;;;;;;;;;;;;;;;-144.31;69.52;73738.50;4957286;28;20004;-74
2021/06/21 04:08:14;;;;;;;;;;;;;;;-144.31;69.51;73736.50;4958576;28;20025;-74
2021/06/21 04:10:40;;;;;;;;;;;;;;;-144.31;69.55;73728.50;4959441;28;19918;-75
2021/06/21 04:13:06;;;;;;;;;;;;;;;-144.31;69.56;73726.50;4959935;28;19936;-75
2021/06/21 04:15:32;;;;;;;;;;;;;;;-144.31;69.57;73704.56;4962208;28;19925;-75
2021/06/21 04:18:09;;;;;;;;;;;;;;;-144.31;69.59;73684.59;4962349;28;19914;-75
2021/06/21 04:20:34;;;;;;;;;;;;;;;-144.31;69.60;73662.63;4972846;28;20408;-75
2021/06/21 04:23:00;;;;;;;;;;;;;;;-144.31;69.59;73636.69;4960610;28;19918;-75
2021/06/21 04:25:26;;;;;;;;;;;;;;;-144.31;69.65;73620.69;4960396;28;19991;-75
2021/06/21 04:27:51;;;;;;;;;;;;;;;-144.31;69.67;73610.72;4959256;28;19922;-76
2021/06/21 04:30:18;;;;;;;;;;;;;;;-144.31;69.68;73580.78;4958021;28;19925;-75
2021/06/21 04:32:47;;;;;;;;;;;;;;;-144.31;69.71;73552.84;4959567;28;19961;-76
2021/06/21 04:35:14;;;;;;;;;;;;;;;-144.31;69.82;73548.84;4971889;28;19921;-75
2021/06/21 04:37:42;;;;;;;;;;;;;;;-144.31;69.87;73526.88;4961102;28;20004;-75
2021/06/21 04:40:11;;;;;;;;;;;;;;;-144.31;69.95;73508.91;4958281;28;20013;-75
2021/06/21 04:42:39;;;;;;;;;;;;;;;-144.31;69.98;73496.94;4959083;28;19918;-75
2021/06/21 04:45:05;;;;;;;;;;;;;;;-144.31;70.05;73498.94;4974043;28;19918;-75
2021/06/21 04:47:31;;;;;;;;;;;;;;;-144.31;70.09;73486.94;4961699;28;20059;-75
2021/06/21 04:49:56;;;;;;;;;;;;;;;-144.31;70.18;73480.97;4961858;28;19969;-75
2021/06/21 04:52:24;;;;;;;;;;;;;;;-144.31;70.20;73474.97;4974853;28;19922;-74
2021/06/21 04:54:49;;;;;;;;;;;;;;;-144.31;70.29;73474.97;4957518;28;20315;-75
2021/06/21 04:57:15;;;;;;;;;;;;;;;-144.31;70.33;73461.00;4969741;28;21151;-74
2021/06/21 04:59:41;;;;;;;;;;;;;;;-144.31;70.41;73461.00;4958532;28;20387;-74
2021/06/21 05:02:06;;;;;;;;;;;;;;;-144.31;70.47;73449.03;4962547;28;19960;-75
2021/06/21 05:04:31;;;;;;;;;;;;;;;-144.31;70.66;73459.00;4956588;28;20006;-76
2021/06/21 05:06:59;;;;;;;;;;;;;;;-144.31;70.83;73476.97;4960296;28;19914;-76
2021/06/21 05:09:27;;;;;;;;;;;;;;;-144.31;71.04;73478.97;4973946;28;20386;-76
2021/06/21 05:11:57;;;;;;;;;;;;;;;-144.31;71.25;73486.94;4960286;28;20336;-76
2021/06/21 05:14:22;;;;;;;;;;;;;;;-144.31;71.50;73500.94;4955372;28;19934;-76
2021/06/21 05:16:48;;;;;;;;;;;;;;;-144.31;71.63;73514.91;4957838;28;19918;-76
2021/06/21 05:19:15;;;;;;;;;;;;;;;-144.31;71.93;73494.94;4963035;28;20389;-75
2021/06/21 05:21:41;;;;;;;;;;;;;;;-144.31;72.08;73488.94;4958625;28;20479;-75
2021/06/21 05:24:06;;;;;;;;;;;;;;;-144.31;72.25;73468.97;4960669;28;19953;-75
2021/06/21 05:26:31;;;;;;;;;;;;;;;-144.31;72.59;73478.97;4960199;28;20347;-76
2021/06/21 05:28:57;;;;;;;;;;;;;;;-144.31;72.63;73437.03;4962944;28;19918;-75
2021/06/21 05:31:22;;;;;;;;;;;;;;;-144.31;72.70;73405.09;4957719;28;19973;-75
2021/06/21 05:33:47;;;;;;;;;;;;;;;-144.31;72.79;73397.13;4959965;28;20013;-76
2021/06/21 05:36:13;;;;;;;;;;;;;;;-144.31;73.09;73427.06;4963408;28;20090;-75
2021/06/21 05:38:38;;;;;;;;;;;;;;;-144.31;73.41;73455.00;4976660;28;19926;-75
2021/06/21 05:41:04;;;;;;;;;;;;;;;-144.31;73.63;73447.03;4976640;28;19936;-75
2021/06/21 05:43:29;;;;;;;;;;;;;;;-144.31;73.76;73431.06;4964362;28;19921;-75
2021/06/21 05:45:54;;;;;;;;;;;;;;;-144.31;74.02;73445.03;4962448;28;19954;-75
2021/06/21 05:48:20;;;;;;;;;;;;;;;-144.31;74.21;73441.03;4965968;28;20508;-76
2021/06/21 05:50:46;;;;;;;;;;;;;;;-144.31;74.33;73409.09;4962978;28;20013;-75
2021/06/21 05:53:11;;;;;;;;;;;;;;;-144.31;74.57;73409.09;4968856;28;19960;-75
2021/06/21 05:55:36;;;;;;;;;;;;;;;-144.31;74.74;73377.16;4953641;28;19968;-76
2021/06/21 05:58:02;;;;;;;;;;;;;;;-144.31;75.23;73385.13;4962166;28;19933;-75
2021/06/21 06:00:28;;;;;;;;;;;;;;;-144.31;75.82;73429.06;4973929;28;19962;-70
2021/06/21 06:02:53;;;;;;;;;;;;;;;-144.31;76.00;73387.13;4962371;28;20304;-71
2021/06/21 06:05:18;;;;;;;;;;;;;;;-144.31;76.28;73359.19;4961268;28;20385;-71
2021/06/21 06:07:45;;;;;;;;;;;;;;;-144.31;76.64;73323.25;4976548;28;20311;-71
2021/06/21 06:10:11;;;;;;;;;;;;;;;-144.31;77.40;73317.28;4961383;28;19918;-71
2021/06/21 06:12:36;;;;;;;;;;;;;;;-144.31;78.30;73315.28;4974462;28;20135;-71
2021/06/21 06:15:04;;;;;;;;;;;;;;;-144.31;79.44;73287.31;4975865;28;20008;-71
2021/06/21 06:17:30;;;;;;;;;;;;;;;-144.31;79.85;73235.44;4975991;28;20388;-71
2021/06/21 06:19:55;;;;;;;;;;;;;;;-144.31;80.66;73195.50;4964779;28;19917;-72
2021/06/21 06:22:20;;;;;;;;;;;;;;;-144.31;82.24;73197.50;4965034;28;20352;-72
2021/06/21 06:24:48;;;;;;;;;;;;;;;-144.31;84.96;73169.56;4963096;28;19914;-72
2021/06/21 06:27:14;;;;;;;;;;;;;;;-144.31;86.31;73137.63;4961710;28;19922;-72
2021/06/21 06:29:39;;;;;;;;;;;;;;;-144.31;87.40;73107.69;4962517;28;20324;-72
2021/06/21 06:32:05;;;;;;;;;;;;;;;-144.31;91.25;73093.69;4947815;28;20601;-72
2021/06/21 06:34:30;;;;;;;;;;;;;;;-144.31;94.19;73085.72;4975934;28;20618;-72
2021/06/21 06:36:56;;;;;;;;;;;;;;;-144.31;100.00;73127.63;4962873;28;19918;-68
2021/06/21 06:39:21;;;;;;;;;;;;;;;-144.31;100.00;73093.69;4962743;28;19926;-70
2021/06/21 06:41:47;;;;;;;;;;;;;;;-144.31;100.00;73083.72;4979939;28;20274;-69
2021/06/21 06:44:13;;;;;;;;;;;;;;;-144.31;100.00;73037.81;4977910;28;19977;-68
2021/06/21 06:46:38;;;;;;;;;;;;;;;-144.31;100.00;72983.91;4966407;28;19922;-68
2021/06/21 06:49:04;;;;;;;;;;;;;;;-144.31;100.00;73013.88;4962942;28;19925;-68
2021/06/21 06:51:35;;;;;;;;;;;;;;;-144.31;100.00;72965.97;4958792;28;19986;-70
2021/06/21 06:54:11;;;;;;;;;;;;;;;-144.31;100.00;72975.94;4957816;28;19928;-69
2021/06/21 06:59:20;;;;;;;;;;;;;;;-144.31;100.00;72902.09;4966346;28;19943;-70
2021/06/21 07:01:46;;;;;;;;;;;;;;;-144.31;100.00;72898.09;4978268;28;20642;-70
2021/06/21 07:04:11;;;;;;;;;;;;;;;-144.31;100.00;72898.09;4966340;28;20176;-69
2021/06/21 07:06:39;;;;;;;;;;;;;;;-144.31;100.00;72953.97;4965034;28;19918;-69
2021/06/21 07:09:05;;;;;;;;;;;;;;;-144.31;100.00;72902.09;4964080;28;20012;-68
2021/06/21 07:11:35;;;;;;;;;;;;;;;-144.31;100.00;72882.13;4964330;28;20398;-69
2021/06/21 07:14:00;;;;;;;;;;;;;;;-144.31;100.00;72981.94;4965946;28;20001;-69
2021/06/21 07:16:26;;;;;;;;;;;;;;;-144.31;100.00;72979.94;4963679;28;20032;-68
2021/06/21 07:18:51;;;;;;;;;;;;;;;-144.31;100.00;72936.00;4979228;28;20300;-70
2021/06/21 07:21:17;;;;;;;;;;;;;;;-144.31;100.00;72902.09;4949287;28;19933;-68
2021/06/21 07:23:42;;;;;;;;;;;;;;;-144.31;100.00;72878.13;4966746;28;19918;-70
2021/06/21 07:26:07;;;;;;;;;;;;;;;-144.31;100.00;72842.22;4966402;28;19914;-68
2021/06/21 07:28:33;;;;;;;;;;;;;;;-144.31;100.00;72800.28;4952943;28;19921;-69
2021/06/21 07:30:58;;;;;;;;;;;;;;;-144.31;100.00;72810.28;4978568;28;19917;-68
2021/06/21 07:33:24;;;;;;;;;;;;;;;-144.31;100.00;72806.28;4966690;28;20534;-70
2021/06/21 07:35:50;;;;;;;;;;;;;;;-144.31;100.00;72746.41;4965258;28;19949;-67
2021/06/21 07:38:17;;;;;;;;;;;;;;;-144.31;100.00;72736.41;4963499;28;20445;-68
2021/06/21 07:40:42;;;;;;;;;;;;;;;-144.31;100.00;72714.47;4965030;28;19945;-70
2021/06/21 07:43:08;;;;;;;;;;;;;;;-144.31;100.00;72746.41;4962064;28;20630;-68
2021/06/21 07:45:33;;;;;;;;;;;;;;;-144.31;100.00;72690.50;4979410;28;19996;-68
2021/06/21 07:47:59;;;;;;;;;;;;;;;-144.31;100.00;72692.50;4966138;28;19925;-70
2021/06/21 07:50:27;;;;;;;;;;;;;;;-144.31;100.00;72738.41;4961857;28;20016;-69
2021/06/21 07:52:52;;;;;;;;;;;;;;;-144.31;100.00;72742.41;4966635;28;19918;-68
2021/06/21 07:55:18;;;;;;;;;;;;;;;-144.31;100.00;72658.59;4966552;28;19918;-69
2021/06/21 07:57:45;;;;;;;;;;;;;;;-144.31;100.00;72708.47;4961500;28;19928;-68
2021/06/21 08:00:11;;;;;;;;;;;;;;;-144.31;100.00;72670.56;4962690;28;20318;-71
2021/06/21 08:02:40;;;;;;;;;;;;;;;-144.31;100.00;72634.63;4963358;28;19963;-69
2021/06/21 08:05:05;;;;;;;;;;;;;;;-144.31;100.00;72606.69;4963918;28;19926;-69
2021/06/21 08:07:31;;;;;;;;;;;;;;;-144.31;100.00;72626.66;4964196;28;19953;-70
2021/06/21 08:09:56;;;;;;;;;;;;;;;-144.31;100.00;72562.78;4965631;28;19914;-69
2021/06/21 08:12:22;;;;;;;;;;;;;;;-144.31;100.00;72702.50;4964595;28;20384;-69
2021/06/21 08:14:47;;;;;;;;;;;;;;;-144.31;100.00;72608.69;4963161;28;19925;-67
2021/06/21 08:17:12;;;;;;;;;;;;;;;-144.31;100.00;72672.56;4962899;28;19925;-68
2021/06/21 08:19:38;;;;;;;;;;;;;;;-144.31;100.00;72646.59;4964382;28;19933;-67
2021/06/21 08:22:03;;;;;;;;;;;;;;;-144.31;100.00;72592.72;4964166;28;20626;-70
2021/06/21 08:24:29;;;;;;;;;;;;;;;-144.31;100.00;72592.72;4963460;28;20089;-68
2021/06/21 08:26:59;;;;;;;;;;;;;;;-144.31;100.00;72566.78;4974517;28;20013;-70
2021/06/21 08:29:24;;;;;;;;;;;;;;;-144.31;100.00;72496.91;4962084;28;19918;-69
2021/06/21 08:31:50;;;;;;;;;;;;;;;-144.31;100.00;72556.78;4978246;28;19926;-71
2021/06/21 08:34:15;;;;;;;;;;;;;;;-144.31;100.00;72476.97;4961667;28;19953;-70
2021/06/21 08:36:40;;;;;;;;;;;;;;;-144.31;100.00;72425.06;4961063;28;19961;-72
2021/06/21 08:39:06;;;;;;;;;;;;;;;-144.31;100.00;72383.16;4977509;28;20376;-69
2021/06/21 08:41:31;;;;;;;;;;;;;;;-144.31;100.00;72433.06;4961238;28;20341;-72
2021/06/21 08:43:59;;;;;;;;;;;;;;;-144.31;100.00;72401.13;4973499;28;20037;-72
2021/06/21 08:46:24;;;;;;;;;;;;;;;-144.31;100.00;72371.19;4948707;28;20147;-73
2021/06/21 08:48:55;;;;;;;;;;;;;;;-144.31;100.00;72329.28;4925793;28;20047;-72
2021/06/21 08:51:20;;;;;;;;;;;;;;;-144.31;100.00;72337.25;4940855;28;20344;-73
2021/06/21 08:53:46;;;;;;;;;;;;;;;-144.31;100.00;72437.03;4926575;28;21470;-72
2021/06/21 08:56:11;;;;;;;;;;;;;;;-144.31;100.00;72333.28;4930734;28;19918;-71
2021/06/21 08:58:37;;;;;;;;;;;;;;;-144.31;100.00;72439.03;4934092;28;20275;-71
2021/06/21 09:01:02;;;;;;;;;;;;;;;-144.31;100.00;72478.97;4934310;28;20023;-71
2021/06/21 09:03:30;;;;;;;;;;;;;;;-144.31;100.00;72514.88;4931474;28;20410;-71
2021/06/21 09:05:56;;;;;;;;;;;;;;;-144.31;100.00;72459.00;4935251;28;19929;-71
2021/06/21 09:08:21;;;;;;;;;;;;;;;-144.31;100.00;72405.13;4946439;28;19922;-79
2021/06/21 09:10:50;;;;;;;;;;;;;;;-144.31;100.00;72383.16;4971607;28;19964;-80
2021/06/21 09:13:16;;;;;;;;;;;;;;;-144.31;100.00;72305.34;4976489;28;23736;-81
2021/06/21 09:15:44;;;;;;;;;;;;;;;-144.31;100.00;72331.28;4963238;28;19914;-81
2021/06/21 09:18:25;;;;;;;;;;;;;;;-144.31;100.00;72383.16;4961420;28;19918;-80
2021/06/21 09:21:11;;;;;;;;;;;;;;;-144.31;100.00;72327.28;4957153;28;19925;-79
2021/06/21 09:23:36;;;;;;;;;;;;;;;-144.31;100.00;72237.47;4944137;28;19922;-80
2021/06/21 09:26:18;;;;;;;;;;;;;;;-144.31;100.00;72277.38;4942414;28;19924;-79
2021/06/21 09:28:45;;;;;;;;;;;;;;;-144.31;100.00;72233.47;4961900;28;19922;-80
2021/06/21 09:31:10;;;;;;;;;;;;;;;-144.31;100.00;72219.50;4959199;28;20044;-80
2021/06/21 09:33:36;;;;;;;;;;;;;;;-144.31;100.00;72239.47;4960303;28;19946;-79
2021/06/21 09:36:02;;;;;;;;;;;;;;;-144.31;100.00;72159.66;4964153;28;19914;-80
2021/06/21 09:38:28;;;;;;;;;;;;;;;-144.31;100.00;72107.75;4943688;28;21286;-74
2021/06/21 09:40:57;;;;;;;;;;;;;;;-144.31;100.00;72123.72;4935101;28;20058;-74
2021/06/21 09:43:27;;;;;;;;;;;;;;;-144.31;100.00;72107.75;4938335;28;20040;-74
2021/06/21 09:46:07;;;;;;;;;;;;;;;-144.31;100.00;72247.47;4938193;28;19918;-75
2021/06/21 09:48:35;;;;;;;;;;;;;;;-144.31;100.00;72237.47;4934695;28;20479;-74
2021/06/21 09:51:20;;;;;;;;;;;;;;;-144.31;100.00;72219.50;4937810;28;19992;-74
2021/06/21 09:53:53;;;;;;;;;;;;;;;-144.31;100.00;72285.38;4938476;28;19957;-74
2021/06/21 09:56:30;;;;;;;;;;;;;;;-144.31;100.00;72163.63;4937043;28;20250;-73
2021/06/21 09:58:56;;;;;;;;;;;;;;;-144.31;100.00;72159.66;4939345;28;19929;-73
2021/06/21 10:01:27;;;;;;;;;;;;;;;-144.31;100.00;72129.72;4925512;28;19922;-73
2021/06/21 10:03:52;;;;;;;;;;;;;;;-144.31;100.00;72127.72;4949882;28;19985;-73
2021/06/21 10:06:17;;;;;;;;;;;;;;;-144.31;100.00;72083.81;4972525;28;20605;-73
2021/06/21 10:08:46;;;;;;;;;;;;;;;-144.31;100.00;72151.66;4950754;28;20671;-74
2021/06/21 10:11:30;;;;;;;;;;;;;;;-144.31;100.00;72117.75;4954089;28;19918;-73
2021/06/21 10:13:59;;;;;;;;;;;;;;;-144.31;100.00;72053.88;4937686;28;21308;-73
2021/06/21 10:16:25;;;;;;;;;;;;;;;-144.31;100.00;71994.00;4964178;28;20288;-73
2021/06/21 10:18:51;;;;;;;;;;;;;;;-144.31;100.00;72037.91;4947456;28;19973;-74
2021/06/21 10:21:17;;;;;;;;;;;;;;;-144.31;100.00;72143.69;4936843;28;19970;-74
2021/06/21 10:23:42;;;;;;;;;;;;;;;-144.31;100.00;72071.84;4938859;28;19922;-73
2021/06/21 10:26:08;;;;;;;;;;;;;;;-144.31;100.00;72007.97;4937492;28;19922;-74
2021/06/21 10:28:34;;;;;;;;;;;;;;;-144.31;100.00;71966.06;4937350;28;20507;-74
2021/06/21 10:30:59;;;;;;;;;;;;;;;-144.31;100.00;71906.22;4939255;28;19918;-74
2021/06/21 10:33:25;;;;;;;;;;;;;;;-144.31;100.00;71854.31;4953097;28;19922;-74
2021/06/21 10:35:56;;;;;;;;;;;;;;;-144.31;100.00;71930.16;4933322;28;19922;-73
2021/06/21 10:38:22;;;;;;;;;;;;;;;-144.31;100.00;72055.88;4937307;28;19921;-73
2021/06/21 10:40:55;;;;;;;;;;;;;;;-144.31;100.00;71924.16;4950156;28;20515;-74
2021/06/21 10:43:48;;;;;;;;;;;;;;;-144.31;100.00;72004.00;4939991;28;19926;-74
2021/06/21 10:46:16;;;;;;;;;;;;;;;-144.31;80.05;72049.88;4934096;28;20555;-73
2021/06/21 10:48:57;;;;;;;;;;;;;;;-144.31;88.80;72055.88;4920510;28;19922;-74
2021/06/21 10:51:33;;;;;;;;;;;;;;;-144.31;46.76;71880.28;4922663;28;19921;-74
2021/06/21 10:54:01;;;;;;;;;;;;;;;-144.31;21.73;71824.41;4917894;28;19984;-72
2021/06/21 10:56:40;;;;;;;;;;;;;;;-144.31;0.00;71738.59;4949125;28;20348;-74
2021/06/21 10:59:14;;;;;;;;;;;;;;;-144.31;0.00;71712.66;4948761;28;20065;-73
2021/06/21 11:01:46;;;;;;;;;;;;;;;-144.31;0.00;71706.66;4937097;28;19922;-73
2021/06/21 11:04:35;;;;;;;;;;;;;;;-144.31;0.00;71812.44;4938804;28;19969;-72
2021/06/21 11:07:11;;;;;;;;;;;;;;;-144.31;0.00;71880.28;4932945;28;19921;-74
2021/06/21 11:09:40;;;;;;;;;;;;;;;-144.31;0.00;72087.81;4938578;28;19921;-74
2021/06/21 11:12:27;;;;;;;;;;;;;;;-144.31;0.00;72115.75;4935046;28;20060;-73
2021/06/21 11:15:14;;;;;;;;;;;;;;;-144.31;0.00;71884.25;4938890;28;20925;-74
2021/06/21 11:17:46;;;;;;;;;;;;;;;-144.31;0.00;72029.94;4937362;28;19921;-74
2021/06/21 11:20:30;;;;;;;;;;;;;;;-144.31;0.00;72004.00;4935256;28;19933;-74
2021/06/21 11:23:00;;;;;;;;;;;;;;;-144.31;0.00;71826.38;4936071;28;19969;-74
2021/06/21 11:25:27;;;;;;;;;;;;;;;-144.31;0.00;71732.59;4934785;28;20405;-74
2021/06/21 11:27:53;;;;;;;;;;;;;;;-144.31;0.00;71720.63;4939237;28;20321;-73
2021/06/21 11:30:30;;;;;;;;;;;;;;;-144.31;7.83;71720.63;4950891;28;20060;-73
2021/06/21 11:32:58;;;;;;;;;;;;;;;-144.31;0.00;72111.75;4943585;28;20007;-73
2021/06/21 11:35:42;;;;;;;;;;;;;;;-144.31;5.28;72093.78;4957627;28;19918;-73
2021/06/21 11:38:19;;;;;;;;;;;;;;;-144.31;7.90;72075.84;4950300;28;19926;-73
2021/06/21 11:40:44;;;;;;;;;;;;;;;-144.31;25.93;71760.53;4934137;28;20021;-73
2021/06/21 11:43:10;;;;;;;;;;;;;;;-144.31;48.45;71521.09;4937057;28;19924;-74
2021/06/21 11:45:46;;;;;;;;;;;;;;;-144.31;61.80;71441.28;4958756;28;20528;-74
2021/06/21 11:48:11;;;;;;;;;;;;;;;-144.31;66.95;71349.50;4961412;28;19922;-73
2021/06/21 11:50:37;;;;;;;;;;;;;;;-144.31;74.06;71355.50;4932971;28;20249;-73
2021/06/21 11:53:03;;;;;;;;;;;;;;;-144.31;80.90;71311.59;4938918;28;19922;-74
2021/06/21 11:55:28;;;;;;;;;;;;;;;-144.31;80.09;71138.03;4934685;28;19922;-74
2021/06/21 11:57:58;;;;;;;;;;;;;;;-144.31;73.60;71142.00;4931845;28;19918;-75
2021/06/21 12:00:35;;;;;;;;;;;;;;;-144.31;76.92;71299.63;4937308;28;20048;-75
2021/06/21 12:03:01;;;;;;;;;;;;;;;-144.31;75.31;71148.00;4935000;28;20675;-74
2021/06/21 12:05:27;;;;;;;;;;;;;;;-144.31;70.08;70944.50;4941584;28;19929;-76
2021/06/21 12:07:52;;;;;;;;;;;;;;;-144.31;75.32;71311.59;4959756;28;19922;-75
2021/06/21 12:10:18;;;;;;;;;;;;;;;-144.31;82.75;71527.09;4962303;28;19921;-74
2021/06/21 12:12:51;;;;;;;;;;;;;;;-144.31;78.54;71243.75;4962773;28;19918;-75
2021/06/21 12:15:31;;;;;;;;;;;;;;;-144.31;77.76;71347.50;4974206;28;19914;-75
2021/06/21 12:17:58;;;;;;;;;;;;;;;-144.31;75.22;71223.81;4958341;28;20005;-75
2021/06/21 12:20:24;;;;;;;;;;;;;;;-144.31;66.38;70954.47;4960391;28;19938;-75
2021/06/21 12:22:52;;;;;;;;;;;;;;;-144.31;68.86;71132.03;4960581;28;19984;-74
2021/06/21 12:25:23;;;;;;;;;;;;;;;-144.31;75.35;71321.56;4961274;28;19918;-75
2021/06/21 12:27:49;;;;;;;;;;;;;;;-144.31;87.73;71756.56;4963270;28;20352;-74
2021/06/21 12:30:15;;;;;;;;;;;;;;;-144.31;87.57;71640.81;4959196;28;19922;-74